Flight Track Log - Related Links

Times and Time Zones

All times are in EDT time to prevent confusion due to time zone crossing. See the SKW7363 flight status page for this flight to view local times or setup timezone preferences in your user account.

Time Position Orientation Groundspeed Altitude Reporting Facility
EDT Latitude Longitude Course Direction KTS MPH feet Rate Location/Type
Thu 02:13:34 PM 45.4606 -98.3722 115° Southeast 245 282 7,900  Level Minneapolis Center
Thu 02:14:36 PM 45.4069 -98.3164 144° Southeast 255 293 10,700 2,371 Climbing Minneapolis Center
Thu 02:15:00 PM 45.3790 -97.6347 113° Southeast  Level Estimated
Thu 02:15:38 PM 45.3750 -98.2111 113° Southeast 284 327 12,800  Level Minneapolis Center
Thu 02:16:00 PM 45.3282 -97.5241 123° Southeast  Level FlightAware
Thu 02:16:40 PM 45.3450 -98.0981 111° Southeast 299 344 15,500  Level Minneapolis Center
Thu 02:17:00 PM 45.3171 -97.3930 112° Southeast  Level Estimated
Thu 02:17:42 PM 45.3081 -97.9708 112° Southeast 324 373 17,800  Level Minneapolis Center
Thu 02:18:45 PM 45.2733 -97.8444 111° Southeast 340 391 20,000 2,160 Climbing Minneapolis Center
Thu 02:19:47 PM 45.2372 -97.7133 111° Southeast 353 406 22,300 1,452 Climbing Minneapolis Center
Thu 02:20:49 PM 45.1975 -97.5794 113° Southeast 364 419 23,000 1,258 Climbing Minneapolis Center
Thu 02:21:51 PM 45.1494 -97.4083 112° Southeast 386 444 24,900 1,839 Climbing Minneapolis Center
Thu 02:22:53 PM 45.1100 -97.2678 112° Southeast 387 445 26,800 1,548 Climbing Minneapolis Center
Thu 02:23:55 PM 45.0700 -97.1286 112° Southeast 383 441 28,100 1,065 Climbing Minneapolis Center
Thu 02:24:57 PM 45.0275 -96.9853 113° Southeast 392 451 29,000 435 Climbing Minneapolis Center
Thu 02:25:59 PM 44.9828 -96.8364 113° Southeast 406 467 29,000  Level Minneapolis Center
Thu 02:27:01 PM 44.9383 -96.6806 112° Southeast 424 488 29,000  Level Minneapolis Center
Thu 02:28:03 PM 44.8836 -96.4944 112° Southeast 429 494 29,000  Level Minneapolis Center
Thu 02:29:05 PM 44.8381 -96.3417 113° Southeast 423 487 29,000 -480 Level Minneapolis Center
Thu 02:30:08 PM 44.7931 -96.1917 113° Southeast 417 480 28,000 -1,152 Descending Minneapolis Center
Thu 02:31:10 PM 44.7475 -96.0392 113° Southeast 421 484 26,600 -1,306 Descending Minneapolis Center
Thu 02:32:12 PM 44.7064 -95.9014 113° Southeast 389 448 25,300 -1,258 Descending Minneapolis Center
Thu 02:33:14 PM 44.6658 -95.7703 113° Southeast 369 425 24,000 -1,258 Descending Minneapolis Center
Thu 02:34:16 PM 44.6242 -95.6342 113° Southeast 373 429 22,700 -1,452 Descending Minneapolis Center
Thu 02:35:18 PM 44.5697 -95.4547 113° Southeast 404 465 21,000 -1,440 Descending Minneapolis Center
Thu 02:36:21 PM 44.5208 -95.2958 113° Southeast 430 495 19,700 -1,344 Descending Minneapolis Center
Thu 02:37:23 PM 44.4747 -95.1431 113° Southeast 431 496 18,200 -1,452 Descending Minneapolis Center
Thu 02:38:25 PM 44.4981 -94.9919 78° East 411 473 16,700 -1,306 Descending Minneapolis Center
Thu 02:39:27 PM 44.5361 -94.8369 71° East 418 481 15,500 -1,258 Descending Minneapolis Center
Thu 02:40:29 PM 44.5789 -94.6619 71° East 403 464 14,100 -1,210 Descending Minneapolis Center
Thu 02:41:31 PM 44.6089 -94.5319 72° East 395 455 13,000 -1,113 Descending Minneapolis Center
Thu 02:42:33 PM 44.6406 -94.3967 72° East 366 421 11,800 -968 Descending Minneapolis Center
Thu 02:43:35 PM 44.6758 -94.2386 73° East 354 407 11,000 -387 Descending Minneapolis Center
Thu 02:44:37 PM 44.7067 -94.1028 72° East 365 420 11,000  Level Minneapolis Center
Thu 02:45:39 PM 44.7372 -93.9650 73° East 369 425 11,000  Level Minneapolis Center
Thu 02:46:41 PM 44.7672 -93.8275 73° East 368 423 11,000  Level Minneapolis Center
Thu 02:47:44 PM 44.7975 -93.6914 73° East 364 419 11,000 -336 Level Minneapolis Center
Thu 02:48:46 PM 44.8258 -93.5619 73° East 346 398 10,300 -1,258 Descending Minneapolis Center
Thu 02:49:48 PM 44.8503 -93.4517 73° East 299 344 8,400 -1,113 Descending Minneapolis Center
Thu 02:50:50 PM 44.8514 -93.3353 89° East 257 296 8,000 -484 Descending Minneapolis Center
Thu 02:51:52 PM 44.7911 -93.3131 165° South 227 261 7,400 -823 Descending Minneapolis Center
Thu 02:52:54 PM 44.7311 -93.3108 178° South 225 259 6,300 -1,403 Descending Minneapolis Center
Thu 02:53:56 PM 44.6928 -93.2581 136° Southeast 248 285 4,500 -1,452 Descending Minneapolis Center
Thu 02:54:58 PM 44.7475 -93.2114 31° Northeast 197 227 3,300 -919 Descending Minneapolis Center
Thu 02:56:00 PM 44.7894 -93.2172 354° North 161 185 2,600 -726 Descending Minneapolis Center
Thu 02:57:02 PM 44.8275 -93.2269 350° North 144 166 1,800 -774 Descending Minneapolis Center

Login

Don't have an account? Register now (free) for customized features, flight alerts, and more!